Time;durP1;ratioP1;P1;durP2;ratioP2;P2;SDS_P1;SDS_P2;PMS_P1;PMS_P2;Temp;Humidity;BMP_temperature;BMP_pressure;BME280_temperature;BME280_humidity;BME280_pressure;Samples;Min_cycle;Max_cycle;Signal;HPM_P1;HPM_P2
2021/10/18 00:02:22;;;;;;;17.25;12.68;;;;;;;11.97;67.36;101525.47;5034643;28;20503;-64
2021/10/18 00:04:49;;;;;;;18.02;13.27;;;;;;;11.84;67.45;101531.75;5041537;28;20049;-64
2021/10/18 00:07:20;;;;;;;19.67;12.32;;;;;;;12.06;67.23;101523.66;5056341;28;20091;-65
2021/10/18 00:09:48;;;;;;;22.73;13.85;;;;;;;12.30;66.44;101527.88;5056557;28;20056;-65
2021/10/18 00:12:17;;;;;;;23.27;13.35;;;;;;;12.37;66.00;101516.41;5020701;28;20416;-64
2021/10/18 00:14:44;;;;;;;17.80;12.85;;;;;;;12.20;66.25;101525.28;5038130;28;20780;-65
2021/10/18 00:17:12;;;;;;;20.08;12.38;;;;;;;12.13;66.63;101530.38;5025102;28;20045;-64
2021/10/18 00:19:40;;;;;;;18.60;12.63;;;;;;;12.32;66.33;101527.56;5038195;28;20056;-64
2021/10/18 00:22:10;;;;;;;22.80;13.30;;;;;;;12.20;66.31;101535.53;5044451;28;20037;-65
2021/10/18 00:24:37;;;;;;;17.90;12.55;;;;;;;12.24;66.22;101533.78;5041391;28;20053;-64
2021/10/18 00:27:05;;;;;;;19.90;13.98;;;;;;;12.27;66.24;101525.72;5040109;28;20045;-64
2021/10/18 00:29:33;;;;;;;20.63;13.25;;;;;;;12.13;66.62;101522.09;5022260;28;20053;-65
2021/10/18 00:32:00;;;;;;;20.73;13.68;;;;;;;12.00;67.18;101522.91;5038488;28;20098;-64
2021/10/18 00:34:27;;;;;;;21.13;13.35;;;;;;;12.00;67.21;101522.06;5045439;28;20059;-65
2021/10/18 00:36:54;;;;;;;21.25;13.98;;;;;;;11.95;67.19;101520.25;5058351;28;20049;-65
2021/10/18 00:39:22;;;;;;;21.00;13.52;;;;;;;11.94;67.36;101515.81;5059818;28;20056;-65
2021/10/18 00:41:49;;;;;;;21.83;13.68;;;;;;;12.09;66.96;101517.50;5059201;28;20037;-63
2021/10/18 00:44:16;;;;;;;22.52;13.48;;;;;;;12.11;66.85;101529.91;5056483;28;20056;-64
2021/10/18 00:46:45;;;;;;;20.75;12.95;;;;;;;11.82;67.62;101537.56;5052814;28;20045;-64
2021/10/18 00:49:12;;;;;;;18.45;13.68;;;;;;;11.64;68.72;101534.81;5053631;28;20060;-68
2021/10/18 00:51:39;;;;;;;20.73;14.65;;;;;;;11.77;68.18;101540.41;5041513;28;20049;-64
2021/10/18 00:54:07;;;;;;;19.23;13.68;;;;;;;11.72;68.33;101539.69;5056885;28;20053;-65
2021/10/18 00:56:34;;;;;;;17.92;12.75;;;;;;;11.79;68.27;101542.88;5056755;28;20055;-64
2021/10/18 00:59:02;;;;;;;21.00;13.68;;;;;;;11.64;68.70;101541.19;5053267;28;20041;-64
2021/10/18 01:01:31;;;;;;;17.60;12.85;;;;;;;11.73;68.66;101549.63;5037975;28;20053;-64
2021/10/18 01:03:59;;;;;;;18.10;12.60;;;;;;;11.65;68.72;101548.34;5037963;28;20519;-64
2021/10/18 01:06:26;;;;;;;19.00;13.00;;;;;;;11.47;69.49;101553.84;5041986;28;20405;-65
2021/10/18 01:08:53;;;;;;;17.30;12.70;;;;;;;11.64;69.06;101554.13;5052948;28;20068;-65
2021/10/18 01:11:21;;;;;;;20.42;12.82;;;;;;;11.62;69.16;101554.44;5039888;28;20060;-66
2021/10/18 01:13:48;;;;;;;20.13;12.40;;;;;;;11.64;69.02;101546.72;5037556;28;20080;-64
2021/10/18 01:16:15;;;;;;;17.05;12.13;;;;;;;11.60;69.28;101542.06;5041351;28;20069;-64
2021/10/18 01:18:43;;;;;;;17.05;11.85;;;;;;;11.46;69.60;101547.50;5037520;28;20041;-65
2021/10/18 01:21:10;;;;;;;18.17;11.75;;;;;;;11.57;69.40;101548.19;5036387;28;20057;-65
2021/10/18 01:23:38;;;;;;;19.23;12.23;;;;;;;11.69;68.95;101551.31;5053103;28;20045;-65
2021/10/18 01:26:05;;;;;;;18.27;12.00;;;;;;;11.71;68.46;101549.91;5055590;28;20436;-63
2021/10/18 01:28:32;;;;;;;18.05;11.90;;;;;;;11.72;68.73;101543.25;5062967;28;20050;-64
2021/10/18 01:30:59;;;;;;;17.30;12.00;;;;;;;11.71;68.83;101543.56;5035941;28;20057;-64
2021/10/18 01:33:27;;;;;;;16.70;11.98;;;;;;;11.45;69.36;101545.88;5038671;28;20056;-64
2021/10/18 01:35:54;;;;;;;17.92;12.40;;;;;;;11.12;70.94;101546.94;5019063;28;20060;-64
2021/10/18 01:38:21;;;;;;;22.10;12.60;;;;;;;11.46;69.75;101543.94;5037464;28;20072;-64
2021/10/18 01:40:48;;;;;;;18.70;12.38;;;;;;;11.40;69.76;101553.41;5041816;28;20060;-64
2021/10/18 01:43:16;;;;;;;20.08;12.23;;;;;;;11.40;70.04;101539.63;5036694;28;20049;-65
2021/10/18 01:45:43;;;;;;;17.50;12.13;;;;;;;11.41;69.88;101539.31;5057818;28;20072;-64
2021/10/18 01:48:10;;;;;;;20.42;12.82;;;;;;;11.61;69.56;101532.66;5037186;28;20041;-65
2021/10/18 01:50:37;;;;;;;19.90;12.25;;;;;;;11.79;68.83;101526.31;5037288;28;20056;-65
2021/10/18 01:53:05;;;;;;;18.85;12.95;;;;;;;11.52;69.44;101526.19;5054408;28;20389;-64
2021/10/18 01:55:33;;;;;;;17.17;12.48;;;;;;;11.45;69.64;101523.81;5056731;28;20057;-64
2021/10/18 01:58:00;;;;;;;20.27;13.18;;;;;;;11.21;70.38;101520.28;5041015;28;20048;-65
2021/10/18 02:00:27;;;;;;;17.20;12.52;;;;;;;11.32;70.16;101519.88;5036906;28;20049;-65
2021/10/18 02:02:55;;;;;;;17.83;12.63;;;;;;;11.15;70.66;101527.03;5039758;28;20056;-64
2021/10/18 02:05:23;;;;;;;18.45;13.00;;;;;;;10.81;72.13;101518.94;5036795;28;20071;-65
2021/10/18 02:07:50;;;;;;;19.30;13.15;;;;;;;10.99;72.44;101523.66;5038177;28;20053;-65
2021/10/18 02:10:17;;;;;;;19.67;12.43;;;;;;;11.05;71.86;101522.44;5056584;28;20052;-64
2021/10/18 02:12:45;;;;;;;19.73;13.20;;;;;;;11.04;71.79;101526.34;5056090;28;20068;-65
2021/10/18 02:15:12;;;;;;;18.25;13.10;;;;;;;11.22;70.94;101521.94;5043305;28;20104;-64
2021/10/18 02:17:40;;;;;;;18.48;12.43;;;;;;;11.29;70.63;101514.97;5036455;28;20045;-64
2021/10/18 02:20:10;;;;;;;18.50;13.48;;;;;;;11.09;71.32;101518.00;5040147;28;20049;-64
2021/10/18 02:22:37;;;;;;;19.85;12.32;;;;;;;10.91;71.92;101527.06;5036328;28;20060;-65
2021/10/18 02:25:06;;;;;;;16.42;12.80;;;;;;;11.03;71.67;101521.13;5034899;28;20432;-64
2021/10/18 02:27:34;;;;;;;19.20;12.85;;;;;;;10.99;71.86;101531.09;5038220;28;20054;-64
2021/10/18 02:30:05;;;;;;;18.20;13.20;;;;;;;10.96;71.92;101521.50;5035649;28;20048;-65
2021/10/18 02:32:33;;;;;;;18.38;13.48;;;;;;;10.88;72.35;101511.13;5050077;28;20040;-64
2021/10/18 02:35:04;;;;;;;17.88;13.13;;;;;;;11.12;71.42;101506.38;5055929;28;20056;-64
2021/10/18 02:37:32;;;;;;;19.15;13.75;;;;;;;11.18;71.50;101505.19;5050404;28;20041;-64
2021/10/18 02:39:59;;;;;;;18.20;12.13;;;;;;;10.87;72.18;101511.41;5069601;28;20056;-63
2021/10/18 02:42:30;;;;;;;19.98;13.43;;;;;;;10.77;72.89;101509.63;5070317;28;20075;-64
2021/10/18 02:44:58;;;;;;;20.92;13.40;;;;;;;10.85;72.67;101508.97;5036117;28;20045;-64
2021/10/18 02:47:25;;;;;;;23.40;12.73;;;;;;;10.98;72.25;101510.97;5034799;28;20600;-64
2021/10/18 02:49:52;;;;;;;18.08;13.05;;;;;;;11.04;72.13;101515.31;5047311;28;20049;-64
2021/10/18 02:52:20;;;;;;;19.95;12.48;;;;;;;11.04;71.78;101503.47;5055900;28;20061;-65
2021/10/18 02:54:47;;;;;;;20.17;13.48;;;;;;;11.02;71.87;101506.50;5050500;28;20048;-64
2021/10/18 02:57:14;;;;;;;18.42;14.07;;;;;;;11.00;71.88;101500.47;5055505;28;20045;-65
2021/10/18 02:59:41;;;;;;;22.20;14.35;;;;;;;11.06;71.77;101496.53;5053766;28;20045;-63
2021/10/18 03:02:10;;;;;;;21.65;13.80;;;;;;;11.06;71.60;101487.44;5050500;28;20049;-64
2021/10/18 03:04:39;;;;;;;20.33;14.40;;;;;;;11.10;71.62;101489.31;5054092;28;20388;-64
2021/10/18 03:07:06;;;;;;;26.20;15.15;;;;;;;10.93;71.59;101489.00;5041755;28;20045;-64
2021/10/18 03:09:33;;;;;;;19.35;13.77;;;;;;;10.90;71.80;101477.75;5036554;28;20412;-64
2021/10/18 03:12:00;;;;;;;22.15;13.93;;;;;;;10.79;72.49;101485.31;5038204;28;20060;-63
2021/10/18 03:14:28;;;;;;;20.25;13.88;;;;;;;11.09;71.86;101476.63;5055260;28;20049;-64
2021/10/18 03:16:57;;;;;;;21.47;14.50;;;;;;;10.82;72.06;101487.50;5055328;28;20060;-64
2021/10/18 03:19:24;;;;;;;25.90;14.90;;;;;;;10.75;72.55;101481.56;5035409;28;20117;-64
2021/10/18 03:21:52;;;;;;;26.60;13.93;;;;;;;10.71;72.68;101490.69;5035632;28;20374;-65
2021/10/18 03:24:19;;;;;;;22.23;14.68;;;;;;;10.72;72.61;101484.88;5043209;28;20412;-64
2021/10/18 03:26:46;;;;;;;20.80;13.98;;;;;;;10.91;72.39;101488.47;5034920;28;20061;-66
2021/10/18 03:29:13;;;;;;;25.02;14.50;;;;;;;10.90;72.27;101492.34;5038901;28;20041;-64
2021/10/18 03:31:41;;;;;;;21.50;14.40;;;;;;;10.49;73.31;101498.69;5035193;28;20053;-64
2021/10/18 03:34:08;;;;;;;24.50;16.15;;;;;;;10.66;73.35;101497.09;5034768;28;20056;-65
2021/10/18 03:36:36;;;;;;;21.83;15.13;;;;;;;10.68;72.96;101491.28;5035307;28;20053;-65
2021/10/18 03:39:03;;;;;;;24.45;16.48;;;;;;;10.67;72.77;101495.97;5046378;28;20044;-65
2021/10/18 03:41:31;;;;;;;26.75;15.80;;;;;;;10.50;73.23;101497.56;5074099;28;20056;-64
2021/10/18 03:43:59;;;;;;;23.67;16.33;;;;;;;10.78;72.82;101503.00;5073397;28;20488;-65
2021/10/18 03:46:26;;;;;;;24.35;16.98;;;;;;;10.71;72.66;101494.25;5074894;28;20060;-64
2021/10/18 03:48:53;;;;;;;24.88;16.38;;;;;;;10.76;72.60;101502.47;5074857;28;20048;-65
2021/10/18 03:51:21;;;;;;;22.80;15.93;;;;;;;10.55;73.21;101503.03;5074881;28;20049;-64
2021/10/18 03:53:48;;;;;;;24.02;15.60;;;;;;;10.67;72.87;101504.22;5073120;28;20056;-64
2021/10/18 03:56:15;;;;;;;20.45;15.02;;;;;;;10.64;72.98;101502.06;5074402;28;20056;-64
2021/10/18 03:58:42;;;;;;;26.45;15.13;;;;;;;10.87;71.84;101498.47;5074654;28;20051;-65
2021/10/18 04:01:10;;;;;;;23.92;15.55;;;;;;;10.76;72.35;101505.22;5054840;28;20075;-65
2021/10/18 04:03:37;;;;;;;24.55;14.98;;;;;;;10.59;72.86;101513.16;5053391;28;20052;-65
2021/10/18 04:06:05;;;;;;;20.67;14.98;;;;;;;11.03;71.67;101510.94;5054458;28;20052;-64
2021/10/18 04:08:33;;;;;;;26.00;15.15;;;;;;;10.79;72.25;101515.63;5054471;28;20064;-65
2021/10/18 04:11:01;;;;;;;20.80;13.88;;;;;;;10.57;73.09;101512.63;5054251;28;20342;-65
2021/10/18 04:13:28;;;;;;;21.23;14.68;;;;;;;10.65;73.19;101508.41;5054584;28;20076;-65
2021/10/18 04:15:56;;;;;;;22.10;14.15;;;;;;;10.79;72.87;101517.59;5053922;28;20056;-66
2021/10/18 04:18:23;;;;;;;23.08;13.73;;;;;;;10.72;72.85;101506.13;5054646;28;20757;-64
2021/10/18 04:20:51;;;;;;;21.85;14.57;;;;;;;10.66;73.08;101523.81;5054626;28;20049;-65
2021/10/18 04:23:18;;;;;;;22.15;14.15;;;;;;;10.45;73.77;101514.97;5054536;28;20492;-64
2021/10/18 04:25:46;;;;;;;21.83;14.65;;;;;;;10.54;73.56;101524.25;5052875;28;20049;-64
2021/10/18 04:28:13;;;;;;;20.17;13.65;;;;;;;10.55;73.64;101527.81;5053450;28;20075;-64
2021/10/18 04:30:41;;;;;;;20.55;13.65;;;;;;;10.48;73.58;101532.88;5054720;28;20041;-64
2021/10/18 04:33:10;;;;;;;20.88;13.38;;;;;;;10.38;73.84;101531.03;5053372;28;20057;-65
2021/10/18 04:35:37;;;;;;;22.65;13.57;;;;;;;10.38;74.56;101533.78;5054297;28;20060;-65
2021/10/18 04:38:04;;;;;;;20.27;13.82;;;;;;;10.58;73.65;101535.50;5054177;28;20056;-64
2021/10/18 04:40:32;;;;;;;21.80;13.75;;;;;;;10.41;73.96;101541.44;5070680;28;20424;-64
2021/10/18 04:43:00;;;;;;;19.88;13.70;;;;;;;10.43;74.19;101535.66;5073019;28;20055;-63
2021/10/18 04:45:30;;;;;;;18.52;12.40;;;;;;;10.42;74.11;101534.84;5073948;28;20057;-66
2021/10/18 04:47:59;;;;;;;17.67;13.30;;;;;;;10.41;74.33;101541.44;5074369;28;20046;-63
2021/10/18 04:50:27;;;;;;;20.95;12.80;;;;;;;10.92;72.77;101545.25;5074528;28;20047;-63
2021/10/18 04:52:54;;;;;;;22.08;12.48;;;;;;;10.65;73.09;101541.47;5076304;28;20060;-65
2021/10/18 04:55:22;;;;;;;19.60;12.70;;;;;;;10.45;73.74;101545.28;5078122;28;20064;-64
2021/10/18 04:57:54;;;;;;;22.77;13.20;;;;;;;10.41;74.10;101541.44;5077711;28;20050;-65
2021/10/18 05:00:24;;;;;;;24.33;13.43;;;;;;;10.35;74.36;101553.66;5077894;28;20075;-64
2021/10/18 05:02:57;;;;;;;20.70;12.80;;;;;;;10.41;74.11;101557.97;5077843;28;20059;-65
2021/10/18 05:05:26;;;;;;;18.85;12.93;;;;;;;10.70;73.12;101568.97;5076238;28;20047;-64
2021/10/18 05:08:04;;;;;;;22.38;12.57;;;;;;;10.54;73.08;101565.56;5076643;28;20380;-64
2021/10/18 05:10:33;;;;;;;18.77;12.63;;;;;;;10.39;73.85;101565.69;5078227;28;20052;-65
2021/10/18 05:13:01;;;;;;;18.92;13.00;;;;;;;10.50;73.46;101572.75;5059902;28;20052;-64
2021/10/18 05:15:32;;;;;;;17.35;12.75;;;;;;;10.43;73.96;101566.78;5075977;28;20408;-65
2021/10/18 05:18:02;;;;;;;20.83;12.50;;;;;;;10.54;73.94;101564.72;5059065;28;20052;-69
2021/10/18 05:20:32;;;;;;;17.65;11.82;;;;;;;10.37;73.96;101561.63;5060749;28;20072;-65
2021/10/18 05:23:00;;;;;;;17.20;11.48;;;;;;;10.20;74.46;101570.31;5077731;28;20045;-66
2021/10/18 05:25:28;;;;;;;19.77;13.18;;;;;;;10.23;74.65;101555.16;5076363;28;20053;-65
2021/10/18 05:27:56;;;;;;;22.48;13.45;;;;;;;10.02;75.47;101557.25;5077521;28;20061;-65
2021/10/18 05:30:26;;;;;;;24.08;14.27;;;;;;;10.17;74.70;101559.88;5062396;28;20041;-64
2021/10/18 05:32:55;;;;;;;20.48;13.13;;;;;;;10.31;74.66;101566.34;5055840;28;20057;-64
2021/10/18 05:35:23;;;;;;;21.63;12.40;;;;;;;10.13;75.19;101561.56;5057495;28;20069;-64
2021/10/18 05:37:50;;;;;;;19.08;12.93;;;;;;;10.29;74.86;101559.50;5055746;28;20075;-64
2021/10/18 05:40:20;;;;;;;19.13;12.20;;;;;;;10.47;73.88;101558.75;5073868;28;20053;-65
2021/10/18 05:42:48;;;;;;;19.17;12.33;;;;;;;10.54;73.90;101561.97;5075824;28;20445;-64
2021/10/18 05:45:16;;;;;;;19.17;12.02;;;;;;;10.11;74.68;101561.06;5076946;28;20048;-66
2021/10/18 05:47:51;;;;;;;18.67;12.75;;;;;;;10.14;75.07;101560.47;5064199;28;20645;-65
2021/10/18 05:50:19;;;;;;;22.77;13.73;;;;;;;10.11;75.20;101561.06;5054403;28;20045;-64
2021/10/18 05:52:46;;;;;;;19.77;13.02;;;;;;;10.12;75.17;101555.25;5058069;28;20053;-64
2021/10/18 05:55:13;;;;;;;21.00;12.95;;;;;;;10.22;74.97;101557.06;5066493;28;20063;-64
2021/10/18 05:57:51;;;;;;;17.35;12.30;;;;;;;10.17;75.08;101557.97;5059700;28;20067;-57
2021/10/18 06:00:19;;;;;;;29.27;18.35;;;;;;;10.34;74.92;101562.22;5068416;28;20040;-56
2021/10/18 06:02:46;;;;;;;21.08;13.70;;;;;;;10.18;75.04;101567.06;5058811;28;20526;-59
2021/10/18 06:05:14;;;;;;;20.23;12.77;;;;;;;10.32;74.72;101573.50;5053036;28;20053;-56
2021/10/18 06:07:41;;;;;;;20.63;12.82;;;;;;;10.56;74.03;101576.28;5053070;28;20052;-56
2021/10/18 06:10:09;;;;;;;20.15;12.05;;;;;;;10.52;73.78;101583.47;5070652;28;20049;-60
2021/10/18 06:12:38;;;;;;;25.77;13.40;;;;;;;10.48;73.91;101586.00;5054154;28;20053;-56
2021/10/18 06:15:06;;;;;;;26.13;13.35;;;;;;;10.63;73.87;101579.50;5054099;28;20064;-58
2021/10/18 06:17:34;;;;;;;18.75;11.93;;;;;;;10.67;73.42;101577.81;5048542;28;20049;-57
2021/10/18 06:20:04;;;;;;;24.00;14.57;;;;;;;10.51;73.70;101585.44;5049602;28;20049;-55
2021/10/18 06:22:31;;;;;;;25.85;15.48;;;;;;;10.71;73.25;101578.84;5056135;28;20342;-63
2021/10/18 06:24:58;;;;;;;16.88;12.65;;;;;;;10.74;73.32;101583.81;5050445;28;20044;-56
2021/10/18 06:27:26;;;;;;;24.42;13.27;;;;;;;10.90;72.95;101577.78;5055297;28;20053;-58
2021/10/18 06:29:53;;;;;;;25.38;12.40;;;;;;;10.83;73.05;101580.09;5055851;28;20712;-57
2021/10/18 06:32:20;;;;;;;20.23;13.38;;;;;;;10.68;73.32;101583.03;5056422;28;20056;-58
2021/10/18 06:34:48;;;;;;;25.65;12.63;;;;;;;11.03;72.40;101582.59;5045442;28;20049;-63
2021/10/18 06:37:15;;;;;;;26.13;12.43;;;;;;;11.01;71.96;101587.59;5054098;28;20048;-57
2021/10/18 06:39:43;;;;;;;20.75;13.10;;;;;;;10.99;71.37;101581.53;5055497;28;20044;-57
2021/10/18 06:42:10;;;;;;;21.73;12.98;;;;;;;10.90;72.94;101583.31;5055534;28;20350;-62
2021/10/18 06:44:40;;;;;;;20.75;12.82;;;;;;;10.93;72.70;101584.66;5047496;28;20083;-55
2021/10/18 06:47:08;;;;;;;24.35;12.98;;;;;;;11.03;72.31;101590.88;5054513;28;20516;-63
2021/10/18 06:49:37;;;;;;;21.88;12.63;;;;;;;11.08;71.88;101590.81;5054628;28;20041;-56
2021/10/18 06:52:05;;;;;;;21.00;12.35;;;;;;;11.35;71.13;101596.50;5048444;28;20044;-61
2021/10/18 06:54:40;;;;;;;21.40;13.18;;;;;;;11.32;70.50;101594.34;5052783;28;20053;-57
2021/10/18 06:57:08;;;;;;;23.00;13.57;;;;;;;11.35;70.56;101590.97;5052357;28;20056;-58
2021/10/18 06:59:35;;;;;;;29.52;13.77;;;;;;;11.44;70.09;101596.63;5055166;28;20041;-57
2021/10/18 07:02:02;;;;;;;23.45;13.68;;;;;;;11.08;71.02;101601.84;5053495;28;20063;-65
2021/10/18 07:04:30;;;;;;;25.92;13.82;;;;;;;11.07;70.98;101596.63;5052872;28;20076;-64
2021/10/18 07:06:58;;;;;;;22.33;13.57;;;;;;;11.13;71.30;101601.78;5053948;28;20056;-64
2021/10/18 07:09:27;;;;;;;23.58;15.20;;;;;;;10.83;72.42;101601.31;5055214;28;20388;-65
2021/10/18 07:11:55;;;;;;;23.27;13.93;;;;;;;10.78;73.29;101601.38;5052478;28;20049;-64
2021/10/18 07:14:22;;;;;;;27.25;14.38;;;;;;;10.90;72.83;101616.38;5062141;28;20082;-56
2021/10/18 07:16:50;;;;;;;30.33;14.25;;;;;;;10.73;73.69;101616.03;5054307;28;20037;-57
2021/10/18 07:19:18;;;;;;;25.23;14.57;;;;;;;10.72;73.27;101614.38;5054603;28;20063;-64
2021/10/18 07:21:46;;;;;;;25.17;14.75;;;;;;;10.90;73.26;101610.88;5055085;28;20048;-64
2021/10/18 07:24:16;;;;;;;25.35;14.50;;;;;;;10.98;73.24;101612.97;5055464;28;20064;-64
2021/10/18 07:26:47;;;;;;;25.25;15.30;;;;;;;10.96;73.27;101617.16;5054538;28;20052;-64
2021/10/18 07:29:14;;;;;;;22.80;14.00;;;;;;;11.11;72.87;101611.44;5052619;28;20052;-64
2021/10/18 07:31:42;;;;;;;23.45;14.50;;;;;;;11.12;73.12;101611.13;5054866;28;20048;-63
2021/10/18 07:34:18;;;;;;;25.25;13.90;;;;;;;11.02;73.26;101602.16;5054308;28;20048;-64
2021/10/18 07:36:49;;;;;;;19.85;13.20;;;;;;;10.98;73.68;101601.13;5053891;28;20053;-65
2021/10/18 07:39:21;;;;;;;19.40;12.95;;;;;;;11.08;73.46;101596.31;5060850;28;20450;-65
2021/10/18 07:41:50;;;;;;;22.95;13.55;;;;;;;11.22;72.93;101600.00;5054511;28;20048;-65
2021/10/18 07:44:19;;;;;;;23.13;14.13;;;;;;;11.18;73.30;101603.63;5054702;28;20048;-65
2021/10/18 07:46:46;;;;;;;19.85;12.68;;;;;;;11.30;72.89;101604.84;5053852;28;20060;-65
2021/10/18 07:49:14;;;;;;;27.02;13.07;;;;;;;11.15;73.49;101606.97;5049431;28;20053;-64
2021/10/18 07:51:41;;;;;;;24.30;13.00;;;;;;;11.47;73.39;101603.53;5053153;28;20052;-64
2021/10/18 07:54:08;;;;;;;26.13;12.20;;;;;;;11.37;73.30;101612.75;5054661;28;20049;-64
2021/10/18 07:56:36;;;;;;;24.08;12.60;;;;;;;11.73;73.19;101610.34;5054137;28;20045;-63
2021/10/18 07:59:03;;;;;;;19.40;12.13;;;;;;;11.84;72.12;101609.88;5055321;28;20504;-63
2021/10/18 08:01:31;;;;;;;23.65;13.75;;;;;;;11.99;71.19;101617.09;5055160;28;20067;-63
2021/10/18 08:03:59;;;;;;;21.35;13.32;;;;;;;12.10;71.15;101621.34;5054546;28;20056;-63
2021/10/18 08:06:26;;;;;;;21.38;12.80;;;;;;;12.04;71.34;101622.53;5053049;28;20041;-63
2021/10/18 08:08:55;;;;;;;19.77;12.70;;;;;;;12.15;71.14;101624.81;5054485;28;20060;-64
2021/10/18 08:11:23;;;;;;;20.33;12.83;;;;;;;12.10;70.44;101624.91;5054004;28;20053;-64
2021/10/18 08:13:50;;;;;;;23.00;12.93;;;;;;;11.95;71.04;101621.56;5054399;28;20428;-64
2021/10/18 08:16:18;;;;;;;20.42;13.63;;;;;;;12.00;71.01;101627.84;5056359;28;20053;-67
2021/10/18 08:18:45;;;;;;;24.23;13.55;;;;;;;12.09;70.96;101628.78;5053328;28;20037;-64
2021/10/18 08:21:12;;;;;;;31.55;13.50;;;;;;;12.42;70.71;101638.72;5052487;28;20047;-63
2021/10/18 08:23:41;;;;;;;30.17;14.25;;;;;;;12.42;70.02;101641.47;5054435;28;20053;-63
2021/10/18 08:26:09;;;;;;;33.38;14.65;;;;;;;12.65;69.72;101634.16;5053241;28;20041;-64
2021/10/18 08:28:36;;;;;;;27.30;14.38;;;;;;;12.62;69.68;101648.59;5059590;28;20049;-64
2021/10/18 08:31:14;;;;;;;24.13;13.73;;;;;;;12.43;70.17;101656.09;5057735;28;20059;-63
2021/10/18 08:33:42;;;;;;;27.92;13.75;;;;;;;12.60;69.87;101638.94;5057747;28;20512;-62
2021/10/18 08:36:09;;;;;;;27.88;13.57;;;;;;;12.94;69.49;101647.69;5072835;28;20045;-63
2021/10/18 08:39:57;;;;;;;22.17;12.63;;;;;;;12.82;69.31;101637.13;5059071;28;20602;-64
2021/10/18 08:42:08;;;;;;;30.52;14.65;;;;;;;12.74;69.39;101628.75;5046952;28;20516;-63
2021/10/18 08:44:34;;;;;;;27.15;13.88;;;;;;;12.63;69.63;101611.53;5056331;28;20067;-63
2021/10/18 08:47:02;;;;;;;24.00;13.43;;;;;;;12.77;69.75;101617.06;5054691;28;20055;-63
2021/10/18 08:49:30;;;;;;;26.63;14.60;;;;;;;13.03;69.10;101621.81;5058516;28;20539;-62
2021/10/18 08:51:58;;;;;;;30.48;14.82;;;;;;;12.77;69.84;101620.66;5071836;28;20511;-63
2021/10/18 08:54:26;;;;;;;21.60;13.70;;;;;;;12.92;70.14;101614.81;5038559;28;20523;-63
2021/10/18 08:56:54;;;;;;;27.50;13.15;;;;;;;13.30;69.20;101610.72;5053199;28;20045;-63
2021/10/18 08:59:23;;;;;;;26.95;13.93;;;;;;;13.28;68.37;101609.41;5057748;28;20052;-64
2021/10/18 09:01:57;;;;;;;24.92;12.20;;;;;;;13.56;68.03;101611.78;5058948;28;20052;-63
2021/10/18 09:04:27;;;;;;;22.67;13.63;;;;;;;13.66;67.83;101612.69;5056225;28;20064;-63
2021/10/18 09:07:02;;;;;;;19.63;12.30;;;;;;;13.66;67.55;101609.91;5070892;28;20045;-65
2021/10/18 09:09:50;;;;;;;27.73;13.45;;;;;;;13.85;67.27;101605.88;5046328;28;20063;-62
2021/10/18 09:12:28;;;;;;;24.25;13.20;;;;;;;13.58;68.41;101605.97;5055629;28;20036;-63
2021/10/18 09:15:25;;;;;;;26.40;13.10;;;;;;;13.60;68.64;101606.44;5056756;28;20041;-62
2021/10/18 09:17:53;;;;;;;31.08;12.50;;;;;;;13.95;67.87;101604.78;5054326;28;20045;-62
2021/10/18 09:20:25;;;;;;;24.73;13.00;;;;;;;14.22;67.37;101604.66;5056183;28;20133;-62
2021/10/18 09:22:53;;;;;;;24.02;12.70;;;;;;;14.17;67.40;101602.03;5056494;28;20064;-63
2021/10/18 09:25:35;;;;;;;23.67;12.85;;;;;;;14.10;67.14;101596.94;5056990;28;20040;-61
2021/10/18 09:28:08;;;;;;;24.98;13.57;;;;;;;14.16;67.76;101594.84;5056336;28;20049;-62
2021/10/18 09:30:47;;;;;;;24.50;12.65;;;;;;;14.43;67.26;101594.72;5066296;28;20053;-63
2021/10/18 09:33:24;;;;;;;26.05;12.98;;;;;;;14.44;67.02;101601.88;5057280;28;20059;-61
2021/10/18 09:35:52;;;;;;;21.25;12.30;;;;;;;14.31;67.80;101603.59;5055157;28;20057;-63
2021/10/18 09:38:21;;;;;;;21.50;12.63;;;;;;;14.19;68.10;101597.00;5054767;28;20053;-63
2021/10/18 09:40:50;;;;;;;27.15;12.50;;;;;;;14.33;67.98;101593.03;5051941;28;20051;-62
2021/10/18 09:43:45;;;;;;;19.30;12.20;;;;;;;14.42;67.87;101598.59;5057110;28;20060;-65
2021/10/18 09:46:18;;;;;;;24.58;12.15;;;;;;;14.63;67.60;101597.75;5048264;28;20052;-66
2021/10/18 10:54:33;;;;;;;20.15;10.95;;;;;;;16.03;65.41;101600.19;5069116;28;20049;-62
2021/10/18 10:57:10;;;;;;;17.52;11.45;;;;;;;16.06;65.71;101598.69;5047373;28;20056;-65
2021/10/18 10:59:38;;;;;;;17.52;10.82;;;;;;;16.14;65.70;101595.09;5053193;28;20053;-65
2021/10/18 11:02:09;;;;;;;18.20;10.90;;;;;;;16.07;66.20;101583.66;5052210;28;20056;-64
2021/10/18 11:04:42;;;;;;;19.33;11.43;;;;;;;16.44;65.37;101582.94;5055075;28;20057;-66
2021/10/18 11:07:11;;;;;;;16.42;10.95;;;;;;;16.29;65.92;101578.72;5054038;28;20044;-65
2021/10/18 11:09:55;;;;;;;16.30;10.45;;;;;;;16.40;65.93;101576.41;5050520;28;20388;-65
2021/10/18 11:12:37;;;;;;;19.33;10.25;;;;;;;16.53;65.70;101575.38;5066712;28;20041;-64
2021/10/18 11:15:09;;;;;;;20.17;10.45;;;;;;;16.25;66.63;101579.72;5051605;28;20052;-64
2021/10/18 11:17:41;;;;;;;17.58;11.05;;;;;;;16.45;66.71;101582.59;5079727;28;20045;-64
2021/10/18 11:20:10;;;;;;;18.23;11.18;;;;;;;16.68;65.82;101575.66;5046797;28;20050;-63
2021/10/18 11:22:44;;;;;;;18.23;10.53;;;;;;;16.75;65.63;101564.03;5032993;28;20052;-67
2021/10/18 11:25:15;;;;;;;16.13;10.50;;;;;;;16.80;65.88;101583.31;5055639;28;20048;-64
2021/10/18 11:27:50;;;;;;;16.98;10.75;;;;;;;17.14;64.90;101583.13;5038439;28;20045;-62
2021/10/18 11:30:18;;;;;;;17.27;9.98;;;;;;;17.23;64.72;101578.34;5048526;28;20480;-65
2021/10/18 11:32:55;;;;;;;22.52;10.85;;;;;;;17.18;64.95;101574.91;5054762;28;20037;-65
2021/10/18 11:35:22;;;;;;;22.52;10.13;;;;;;;17.10;65.82;101573.00;5053260;28;20048;-66
2021/10/18 11:37:58;;;;;;;14.45;9.35;;;;;;;17.32;65.19;101578.28;5053994;28;20045;-66
2021/10/18 11:40:36;;;;;;;16.83;9.45;;;;;;;17.49;64.63;101572.59;5068345;28;20052;-67
2021/10/18 11:43:09;;;;;;;17.30;9.85;;;;;;;17.49;64.63;101564.25;5064204;28;20484;-64
2021/10/18 11:45:44;;;;;;;23.00;10.13;;;;;;;17.58;64.44;101553.84;5051049;28;20049;-65
2021/10/18 11:48:25;;;;;;;21.00;10.00;;;;;;;17.79;63.72;101543.53;5052481;28;20053;-65
2021/10/18 11:50:57;;;;;;;20.85;10.57;;;;;;;17.82;63.61;101540.88;5046990;28;20052;-66
2021/10/18 11:53:26;;;;;;;17.88;9.40;;;;;;;17.85;63.91;101531.81;5050981;28;20049;-65
2021/10/18 11:56:02;;;;;;;16.67;9.60;;;;;;;17.68;64.64;101518.03;5056085;28;20045;-64
2021/10/18 11:58:38;;;;;;;16.73;9.88;;;;;;;17.57;64.93;101521.59;5031842;28;20049;-66
2021/10/18 12:01:08;;;;;;;15.27;10.40;;;;;;;17.65;65.15;101518.72;5049468;28;20424;-68
2021/10/18 12:03:37;;;;;;;21.00;10.63;;;;;;;17.61;65.16;101520.56;5057140;28;20048;-66
2021/10/18 12:06:10;;;;;;;20.92;10.20;;;;;;;17.69;65.23;101510.50;5058597;28;20048;-68
2021/10/18 12:08:40;;;;;;;14.70;10.20;;;;;;;17.56;65.76;101512.41;5057697;28;20056;-67
2021/10/18 12:11:10;;;;;;;18.20;9.40;;;;;;;17.92;64.97;101490.25;5057688;28;20044;-66
2021/10/18 12:13:39;;;;;;;18.15;8.85;;;;;;;17.91;64.98;101491.44;5057966;28;20053;-67
2021/10/18 12:16:07;;;;;;;23.48;10.43;;;;;;;17.92;64.90;101495.81;5056574;28;20044;-67
2021/10/18 12:18:36;;;;;;;24.80;10.60;;;;;;;17.68;65.77;101500.50;5057938;28;20059;-66
2021/10/18 12:21:09;;;;;;;17.60;9.30;;;;;;;17.80;65.96;101493.00;5058192;28;20045;-66
2021/10/18 12:23:46;;;;;;;20.13;9.57;;;;;;;18.05;65.28;101488.31;5057917;28;20044;-65
2021/10/18 12:26:19;;;;;;;20.98;10.23;;;;;;;18.21;65.11;101477.31;5048564;28;20722;-63